sensor_id;sensor_type;location;lat;lon;timestamp;P1;durP1;ratioP1;P2;durP2;ratioP2
75739;SDS011;64357;51.344;6.550;2023-04-10T00:00:18;10.07;;;3.78;;
75739;SDS011;64357;51.344;6.550;2023-04-10T00:02:44;8.38;;;3.53;;
75739;SDS011;64357;51.344;6.550;2023-04-10T00:05:12;9.65;;;3.92;;
75739;SDS011;64357;51.344;6.550;2023-04-10T00:07:37;9.80;;;3.95;;
75739;SDS011;64357;51.344;6.550;2023-04-10T00:10:03;9.80;;;3.97;;
75739;SDS011;64357;51.344;6.550;2023-04-10T00:12:28;10.18;;;4.07;;
75739;SDS011;64357;51.344;6.550;2023-04-10T00:14:54;9.50;;;3.92;;
75739;SDS011;64357;51.344;6.550;2023-04-10T00:17:19;9.40;;;4.10;;
75739;SDS011;64357;51.344;6.550;2023-04-10T00:19:45;9.15;;;3.83;;
75739;SDS011;64357;51.344;6.550;2023-04-10T00:22:13;9.90;;;4.20;;
75739;SDS011;64357;51.344;6.550;2023-04-10T00:24:41;8.00;;;3.80;;
75739;SDS011;64357;51.344;6.550;2023-04-10T00:27:06;9.80;;;4.00;;
75739;SDS011;64357;51.344;6.550;2023-04-10T00:29:31;8.50;;;3.60;;
75739;SDS011;64357;51.344;6.550;2023-04-10T00:31:59;8.68;;;3.47;;
75739;SDS011;64357;51.344;6.550;2023-04-10T00:34:25;13.43;;;3.97;;
75739;SDS011;64357;51.344;6.550;2023-04-10T00:36:50;9.98;;;3.65;;
75739;SDS011;64357;51.344;6.550;2023-04-10T00:39:20;11.05;;;4.35;;
75739;SDS011;64357;51.344;6.550;2023-04-10T00:41:48;8.82;;;3.80;;
75739;SDS011;64357;51.344;6.550;2023-04-10T00:44:13;10.52;;;3.80;;
75739;SDS011;64357;51.344;6.550;2023-04-10T00:46:39;11.02;;;4.45;;
75739;SDS011;64357;51.344;6.550;2023-04-10T00:49:05;8.50;;;3.58;;
75739;SDS011;64357;51.344;6.550;2023-04-10T00:51:35;9.00;;;3.42;;
75739;SDS011;64357;51.344;6.550;2023-04-10T00:54:03;9.98;;;4.38;;
75739;SDS011;64357;51.344;6.550;2023-04-10T00:56:29;9.10;;;4.00;;
75739;SDS011;64357;51.344;6.550;2023-04-10T00:58:56;9.85;;;4.18;;
75739;SDS011;64357;51.344;6.550;2023-04-10T01:01:21;9.82;;;4.00;;
75739;SDS011;64357;51.344;6.550;2023-04-10T01:03:47;10.50;;;4.05;;
75739;SDS011;64357;51.344;6.550;2023-04-10T01:06:17;11.95;;;4.38;;
75739;SDS011;64357;51.344;6.550;2023-04-10T01:11:52;9.73;;;4.18;;
75739;SDS011;64357;51.344;6.550;2023-04-10T01:17:06;9.57;;;4.00;;
75739;SDS011;64357;51.344;6.550;2023-04-10T01:22:34;10.15;;;4.10;;
75739;SDS011;64357;51.344;6.550;2023-04-10T01:25:10;11.30;;;4.00;;
75739;SDS011;64357;51.344;6.550;2023-04-10T01:30:42;10.55;;;4.32;;
75739;SDS011;64357;51.344;6.550;2023-04-10T01:33:14;12.65;;;4.65;;
75739;SDS011;64357;51.344;6.550;2023-04-10T01:35:48;9.95;;;3.92;;
75739;SDS011;64357;51.344;6.550;2023-04-10T01:38:16;11.35;;;4.38;;
75739;SDS011;64357;51.344;6.550;2023-04-10T01:40:44;9.73;;;4.22;;
75739;SDS011;64357;51.344;6.550;2023-04-10T01:43:16;12.23;;;4.35;;
75739;SDS011;64357;51.344;6.550;2023-04-10T01:45:44;11.60;;;4.45;;
75739;SDS011;64357;51.344;6.550;2023-04-10T01:48:13;11.27;;;4.43;;
75739;SDS011;64357;51.344;6.550;2023-04-10T01:50:41;10.27;;;4.15;;
75739;SDS011;64357;51.344;6.550;2023-04-10T01:53:08;11.38;;;4.90;;
75739;SDS011;64357;51.344;6.550;2023-04-10T01:55:36;10.93;;;4.45;;
75739;SDS011;64357;51.344;6.550;2023-04-10T01:58:05;9.63;;;3.83;;
75739;SDS011;64357;51.344;6.550;2023-04-10T02:00:40;10.27;;;4.13;;
75739;SDS011;64357;51.344;6.550;2023-04-10T02:03:07;10.50;;;4.40;;
75739;SDS011;64357;51.344;6.550;2023-04-10T02:05:56;9.88;;;4.13;;
75739;SDS011;64357;51.344;6.550;2023-04-10T02:08:30;11.70;;;4.38;;
75739;SDS011;64357;51.344;6.550;2023-04-10T02:13:54;10.27;;;4.35;;
75739;SDS011;64357;51.344;6.550;2023-04-10T02:16:26;10.30;;;3.90;;
75739;SDS011;64357;51.344;6.550;2023-04-10T02:18:53;10.57;;;4.38;;
75739;SDS011;64357;51.344;6.550;2023-04-10T02:21:19;10.82;;;4.57;;
75739;SDS011;64357;51.344;6.550;2023-04-10T02:23:45;10.50;;;4.40;;
75739;SDS011;64357;51.344;6.550;2023-04-10T02:26:11;10.57;;;4.80;;
75739;SDS011;64357;51.344;6.550;2023-04-10T02:28:37;11.47;;;4.43;;
75739;SDS011;64357;51.344;6.550;2023-04-10T02:31:03;11.68;;;4.88;;
75739;SDS011;64357;51.344;6.550;2023-04-10T02:33:32;10.85;;;4.07;;
75739;SDS011;64357;51.344;6.550;2023-04-10T02:36:00;12.43;;;5.40;;
75739;SDS011;64357;51.344;6.550;2023-04-10T02:38:27;11.00;;;4.75;;
75739;SDS011;64357;51.344;6.550;2023-04-10T02:40:52;11.67;;;3.97;;
75739;SDS011;64357;51.344;6.550;2023-04-10T02:43:18;10.43;;;4.72;;
75739;SDS011;64357;51.344;6.550;2023-04-10T02:45:43;9.88;;;4.07;;
75739;SDS011;64357;51.344;6.550;2023-04-10T02:48:11;10.97;;;4.53;;
75739;SDS011;64357;51.344;6.550;2023-04-10T02:50:37;11.13;;;4.60;;
75739;SDS011;64357;51.344;6.550;2023-04-10T02:53:02;12.73;;;4.47;;
75739;SDS011;64357;51.344;6.550;2023-04-10T02:55:28;11.60;;;4.50;;
75739;SDS011;64357;51.344;6.550;2023-04-10T02:57:53;12.40;;;4.70;;
75739;SDS011;64357;51.344;6.550;2023-04-10T03:00:19;13.25;;;5.53;;
75739;SDS011;64357;51.344;6.550;2023-04-10T03:02:45;13.80;;;5.15;;
75739;SDS011;64357;51.344;6.550;2023-04-10T03:05:15;11.95;;;5.22;;
75739;SDS011;64357;51.344;6.550;2023-04-10T03:07:40;12.18;;;5.22;;
75739;SDS011;64357;51.344;6.550;2023-04-10T03:10:06;13.43;;;5.43;;
75739;SDS011;64357;51.344;6.550;2023-04-10T03:12:32;12.63;;;4.90;;
75739;SDS011;64357;51.344;6.550;2023-04-10T03:15:00;14.05;;;5.20;;
75739;SDS011;64357;51.344;6.550;2023-04-10T03:17:27;17.33;;;6.93;;
75739;SDS011;64357;51.344;6.550;2023-04-10T03:19:53;13.63;;;6.10;;
75739;SDS011;64357;51.344;6.550;2023-04-10T03:22:18;15.67;;;6.27;;
75739;SDS011;64357;51.344;6.550;2023-04-10T03:24:46;15.07;;;6.28;;
75739;SDS011;64357;51.344;6.550;2023-04-10T03:27:12;14.52;;;6.03;;
75739;SDS011;64357;51.344;6.550;2023-04-10T03:29:38;13.82;;;6.20;;
75739;SDS011;64357;51.344;6.550;2023-04-10T03:32:05;14.60;;;5.47;;
75739;SDS011;64357;51.344;6.550;2023-04-10T03:34:31;15.18;;;6.22;;
75739;SDS011;64357;51.344;6.550;2023-04-10T03:36:58;12.97;;;5.07;;
75739;SDS011;64357;51.344;6.550;2023-04-10T03:39:23;13.60;;;5.40;;
75739;SDS011;64357;51.344;6.550;2023-04-10T03:41:51;12.77;;;5.22;;
75739;SDS011;64357;51.344;6.550;2023-04-10T03:44:16;11.07;;;4.63;;
75739;SDS011;64357;51.344;6.550;2023-04-10T03:46:42;14.00;;;5.43;;
75739;SDS011;64357;51.344;6.550;2023-04-10T03:49:07;10.82;;;4.95;;
75739;SDS011;64357;51.344;6.550;2023-04-10T03:51:33;12.13;;;5.23;;
75739;SDS011;64357;51.344;6.550;2023-04-10T03:53:58;12.68;;;4.90;;
75739;SDS011;64357;51.344;6.550;2023-04-10T03:56:23;15.13;;;5.20;;
75739;SDS011;64357;51.344;6.550;2023-04-10T03:58:49;12.27;;;5.32;;
75739;SDS011;64357;51.344;6.550;2023-04-10T04:01:15;12.07;;;5.03;;
75739;SDS011;64357;51.344;6.550;2023-04-10T04:03:41;12.38;;;4.65;;
75739;SDS011;64357;51.344;6.550;2023-04-10T04:06:09;14.10;;;6.18;;
75739;SDS011;64357;51.344;6.550;2023-04-10T04:08:35;11.90;;;4.47;;
75739;SDS011;64357;51.344;6.550;2023-04-10T04:11:04;11.30;;;5.10;;
75739;SDS011;64357;51.344;6.550;2023-04-10T04:13:38;12.50;;;4.78;;
75739;SDS011;64357;51.344;6.550;2023-04-10T04:16:08;13.93;;;5.35;;
75739;SDS011;64357;51.344;6.550;2023-04-10T04:18:34;11.23;;;4.65;;
75739;SDS011;64357;51.344;6.550;2023-04-10T04:21:00;11.80;;;5.05;;
75739;SDS011;64357;51.344;6.550;2023-04-10T04:23:25;11.52;;;4.80;;
75739;SDS011;64357;51.344;6.550;2023-04-10T04:25:51;13.40;;;5.57;;
75739;SDS011;64357;51.344;6.550;2023-04-10T04:28:23;12.57;;;4.97;;
75739;SDS011;64357;51.344;6.550;2023-04-10T04:30:49;11.05;;;5.25;;
75739;SDS011;64357;51.344;6.550;2023-04-10T04:33:15;14.13;;;5.50;;
75739;SDS011;64357;51.344;6.550;2023-04-10T04:35:40;12.88;;;5.07;;
75739;SDS011;64357;51.344;6.550;2023-04-10T04:38:08;13.43;;;4.68;;
75739;SDS011;64357;51.344;6.550;2023-04-10T04:40:33;12.98;;;5.25;;
75739;SDS011;64357;51.344;6.550;2023-04-10T04:42:58;13.53;;;5.30;;
75739;SDS011;64357;51.344;6.550;2023-04-10T04:45:24;13.07;;;5.20;;
75739;SDS011;64357;51.344;6.550;2023-04-10T04:47:50;12.65;;;5.53;;
75739;SDS011;64357;51.344;6.550;2023-04-10T04:50:15;14.57;;;6.18;;
75739;SDS011;64357;51.344;6.550;2023-04-10T04:52:42;13.88;;;5.90;;
75739;SDS011;64357;51.344;6.550;2023-04-10T04:55:10;16.60;;;7.45;;
75739;SDS011;64357;51.344;6.550;2023-04-10T04:57:36;19.48;;;7.65;;
75739;SDS011;64357;51.344;6.550;2023-04-10T05:00:01;15.10;;;6.18;;
75739;SDS011;64357;51.344;6.550;2023-04-10T05:02:26;17.83;;;7.88;;
75739;SDS011;64357;51.344;6.550;2023-04-10T05:04:54;19.95;;;8.13;;
75739;SDS011;64357;51.344;6.550;2023-04-10T05:07:20;16.73;;;7.22;;
75739;SDS011;64357;51.344;6.550;2023-04-10T05:09:45;18.58;;;6.88;;
75739;SDS011;64357;51.344;6.550;2023-04-10T05:12:10;17.03;;;7.43;;
75739;SDS011;64357;51.344;6.550;2023-04-10T05:14:38;17.67;;;6.38;;
75739;SDS011;64357;51.344;6.550;2023-04-10T05:17:05;14.55;;;6.45;;
75739;SDS011;64357;51.344;6.550;2023-04-10T05:19:33;13.95;;;5.75;;
75739;SDS011;64357;51.344;6.550;2023-04-10T05:21:58;14.73;;;5.70;;
75739;SDS011;64357;51.344;6.550;2023-04-10T05:24:23;15.10;;;5.57;;
75739;SDS011;64357;51.344;6.550;2023-04-10T05:26:49;11.48;;;4.90;;
75739;SDS011;64357;51.344;6.550;2023-04-10T05:29:15;10.80;;;4.50;;
75739;SDS011;64357;51.344;6.550;2023-04-10T05:31:40;12.45;;;5.03;;
75739;SDS011;64357;51.344;6.550;2023-04-10T05:34:08;11.93;;;5.03;;
75739;SDS011;64357;51.344;6.550;2023-04-10T05:36:33;11.63;;;4.70;;
75739;SDS011;64357;51.344;6.550;2023-04-10T05:39:01;10.82;;;4.20;;
75739;SDS011;64357;51.344;6.550;2023-04-10T05:41:27;10.95;;;4.53;;
75739;SDS011;64357;51.344;6.550;2023-04-10T05:43:55;10.87;;;4.33;;
75739;SDS011;64357;51.344;6.550;2023-04-10T05:46:20;11.68;;;4.57;;
75739;SDS011;64357;51.344;6.550;2023-04-10T05:48:48;11.32;;;4.95;;
75739;SDS011;64357;51.344;6.550;2023-04-10T05:51:13;9.30;;;3.78;;
75739;SDS011;64357;51.344;6.550;2023-04-10T05:53:38;10.70;;;4.37;;
75739;SDS011;64357;51.344;6.550;2023-04-10T05:56:09;10.88;;;4.60;;
75739;SDS011;64357;51.344;6.550;2023-04-10T05:58:34;10.57;;;4.25;;
75739;SDS011;64357;51.344;6.550;2023-04-10T06:01:00;11.27;;;4.40;;
75739;SDS011;64357;51.344;6.550;2023-04-10T06:03:28;10.13;;;4.35;;
75739;SDS011;64357;51.344;6.550;2023-04-10T06:05:56;10.57;;;4.38;;
75739;SDS011;64357;51.344;6.550;2023-04-10T06:08:23;10.32;;;4.65;;
75739;SDS011;64357;51.344;6.550;2023-04-10T06:10:48;9.23;;;3.78;;
75739;SDS011;64357;51.344;6.550;2023-04-10T06:13:16;11.20;;;4.30;;
75739;SDS011;64357;51.344;6.550;2023-04-10T06:15:41;9.65;;;4.28;;
75739;SDS011;64357;51.344;6.550;2023-04-10T06:18:07;11.23;;;4.78;;
75739;SDS011;64357;51.344;6.550;2023-04-10T06:20:34;10.68;;;4.40;;
75739;SDS011;64357;51.344;6.550;2023-04-10T06:23:02;12.15;;;4.43;;
75739;SDS011;64357;51.344;6.550;2023-04-10T06:25:30;9.90;;;3.83;;
75739;SDS011;64357;51.344;6.550;2023-04-10T06:27:55;11.23;;;4.60;;
75739;SDS011;64357;51.344;6.550;2023-04-10T06:30:21;9.32;;;4.18;;
75739;SDS011;64357;51.344;6.550;2023-04-10T06:32:46;9.73;;;4.13;;
75739;SDS011;64357;51.344;6.550;2023-04-10T06:35:12;11.15;;;5.00;;
75739;SDS011;64357;51.344;6.550;2023-04-10T06:37:38;11.23;;;4.85;;
75739;SDS011;64357;51.344;6.550;2023-04-10T06:40:07;9.77;;;3.63;;
75739;SDS011;64357;51.344;6.550;2023-04-10T06:42:36;10.93;;;4.47;;
75739;SDS011;64357;51.344;6.550;2023-04-10T06:45:02;9.65;;;4.18;;
75739;SDS011;64357;51.344;6.550;2023-04-10T06:47:28;9.95;;;4.35;;
75739;SDS011;64357;51.344;6.550;2023-04-10T06:49:58;9.13;;;3.22;;
75739;SDS011;64357;51.344;6.550;2023-04-10T06:52:23;8.18;;;3.20;;
75739;SDS011;64357;51.344;6.550;2023-04-10T06:54:49;10.20;;;4.72;;
75739;SDS011;64357;51.344;6.550;2023-04-10T06:57:14;9.67;;;3.47;;
75739;SDS011;64357;51.344;6.550;2023-04-10T06:59:40;8.30;;;3.65;;
75739;SDS011;64357;51.344;6.550;2023-04-10T07:02:08;8.90;;;4.05;;
75739;SDS011;64357;51.344;6.550;2023-04-10T07:04:33;9.73;;;3.05;;
75739;SDS011;64357;51.344;6.550;2023-04-10T07:06:59;8.55;;;3.40;;
75739;SDS011;64357;51.344;6.550;2023-04-10T07:09:28;9.00;;;3.80;;
75739;SDS011;64357;51.344;6.550;2023-04-10T07:11:54;9.40;;;4.05;;
75739;SDS011;64357;51.344;6.550;2023-04-10T07:14:20;9.35;;;3.88;;
75739;SDS011;64357;51.344;6.550;2023-04-10T07:16:48;9.25;;;3.88;;
75739;SDS011;64357;51.344;6.550;2023-04-10T07:19:13;8.38;;;3.53;;
75739;SDS011;64357;51.344;6.550;2023-04-10T07:21:39;9.07;;;3.72;;
75739;SDS011;64357;51.344;6.550;2023-04-10T07:24:07;8.88;;;3.70;;
75739;SDS011;64357;51.344;6.550;2023-04-10T07:26:34;9.43;;;3.60;;
75739;SDS011;64357;51.344;6.550;2023-04-10T07:29:00;8.43;;;3.33;;
75739;SDS011;64357;51.344;6.550;2023-04-10T07:31:26;9.27;;;4.03;;
75739;SDS011;64357;51.344;6.550;2023-04-10T07:33:52;9.13;;;4.05;;
75739;SDS011;64357;51.344;6.550;2023-04-10T07:36:17;8.63;;;3.47;;
75739;SDS011;64357;51.344;6.550;2023-04-10T07:38:45;8.98;;;3.65;;
75739;SDS011;64357;51.344;6.550;2023-04-10T07:41:15;8.65;;;3.47;;
75739;SDS011;64357;51.344;6.550;2023-04-10T07:43:42;8.15;;;3.60;;
75739;SDS011;64357;51.344;6.550;2023-04-10T07:46:08;9.20;;;3.63;;
75739;SDS011;64357;51.344;6.550;2023-04-10T07:48:33;8.90;;;3.88;;
75739;SDS011;64357;51.344;6.550;2023-04-10T07:50:58;9.50;;;4.07;;
75739;SDS011;64357;51.344;6.550;2023-04-10T07:53:26;9.02;;;4.25;;
75739;SDS011;64357;51.344;6.550;2023-04-10T07:55:51;7.72;;;3.60;;
75739;SDS011;64357;51.344;6.550;2023-04-10T07:58:17;8.75;;;3.60;;
75739;SDS011;64357;51.344;6.550;2023-04-10T08:00:45;9.02;;;3.40;;
75739;SDS011;64357;51.344;6.550;2023-04-10T08:03:10;7.87;;;3.33;;
75739;SDS011;64357;51.344;6.550;2023-04-10T08:05:39;9.20;;;3.85;;
75739;SDS011;64357;51.344;6.550;2023-04-10T08:08:07;7.57;;;3.50;;
75739;SDS011;64357;51.344;6.550;2023-04-10T08:10:34;9.43;;;3.60;;
75739;SDS011;64357;51.344;6.550;2023-04-10T08:13:01;8.75;;;3.80;;
75739;SDS011;64357;51.344;6.550;2023-04-10T08:15:29;9.20;;;3.70;;
75739;SDS011;64357;51.344;6.550;2023-04-10T08:17:58;7.85;;;3.53;;
75739;SDS011;64357;51.344;6.550;2023-04-10T08:20:23;7.70;;;3.38;;
75739;SDS011;64357;51.344;6.550;2023-04-10T08:22:48;9.10;;;3.73;;
75739;SDS011;64357;51.344;6.550;2023-04-10T08:25:22;8.15;;;3.30;;
75739;SDS011;64357;51.344;6.550;2023-04-10T08:27:48;8.63;;;3.70;;
75739;SDS011;64357;51.344;6.550;2023-04-10T08:30:13;9.53;;;3.60;;
75739;SDS011;64357;51.344;6.550;2023-04-10T08:32:38;7.80;;;3.47;;
75739;SDS011;64357;51.344;6.550;2023-04-10T08:35:04;7.82;;;3.25;;
75739;SDS011;64357;51.344;6.550;2023-04-10T08:37:30;8.85;;;3.45;;
75739;SDS011;64357;51.344;6.550;2023-04-10T08:39:58;7.40;;;3.37;;
75739;SDS011;64357;51.344;6.550;2023-04-10T08:42:23;7.53;;;3.45;;
75739;SDS011;64357;51.344;6.550;2023-04-10T08:44:49;11.57;;;3.95;;
75739;SDS011;64357;51.344;6.550;2023-04-10T08:47:18;8.02;;;3.63;;
75739;SDS011;64357;51.344;6.550;2023-04-10T08:52:27;8.10;;;3.83;;
75739;SDS011;64357;51.344;6.550;2023-04-10T08:54:56;7.68;;;3.70;;
75739;SDS011;64357;51.344;6.550;2023-04-10T08:57:28;8.30;;;3.25;;
75739;SDS011;64357;51.344;6.550;2023-04-10T08:59:54;7.75;;;3.33;;
75739;SDS011;64357;51.344;6.550;2023-04-10T09:02:20;9.93;;;3.92;;
75739;SDS011;64357;51.344;6.550;2023-04-10T09:04:51;7.22;;;3.17;;
75739;SDS011;64357;51.344;6.550;2023-04-10T09:09:49;10.27;;;3.47;;
75739;SDS011;64357;51.344;6.550;2023-04-10T09:12:15;6.82;;;3.50;;
75739;SDS011;64357;51.344;6.550;2023-04-10T09:14:42;7.68;;;3.45;;
75739;SDS011;64357;51.344;6.550;2023-04-10T09:17:20;7.95;;;3.08;;
75739;SDS011;64357;51.344;6.550;2023-04-10T09:19:50;8.55;;;3.42;;
75739;SDS011;64357;51.344;6.550;2023-04-10T09:22:32;7.90;;;3.55;;
75739;SDS011;64357;51.344;6.550;2023-04-10T09:25:01;8.18;;;3.47;;
75739;SDS011;64357;51.344;6.550;2023-04-10T09:29:55;8.18;;;3.25;;
75739;SDS011;64357;51.344;6.550;2023-04-10T09:35:16;9.00;;;3.60;;
75739;SDS011;64357;51.344;6.550;2023-04-10T09:37:43;7.85;;;3.17;;
75739;SDS011;64357;51.344;6.550;2023-04-10T09:40:22;7.32;;;3.22;;
75739;SDS011;64357;51.344;6.550;2023-04-10T09:42:51;7.72;;;3.10;;
75739;SDS011;64357;51.344;6.550;2023-04-10T09:45:17;7.03;;;3.38;;
75739;SDS011;64357;51.344;6.550;2023-04-10T09:48:05;7.93;;;3.28;;
75739;SDS011;64357;51.344;6.550;2023-04-10T09:50:40;7.18;;;3.38;;
75739;SDS011;64357;51.344;6.550;2023-04-10T09:53:09;7.05;;;2.63;;
75739;SDS011;64357;51.344;6.550;2023-04-10T09:55:40;7.57;;;3.38;;
75739;SDS011;64357;51.344;6.550;2023-04-10T09:58:06;7.13;;;2.97;;
75739;SDS011;64357;51.344;6.550;2023-04-10T10:00:34;8.50;;;3.50;;
75739;SDS011;64357;51.344;6.550;2023-04-10T10:03:09;7.82;;;3.13;;
75739;SDS011;64357;51.344;6.550;2023-04-10T10:05:41;7.35;;;2.90;;
75739;SDS011;64357;51.344;6.550;2023-04-10T10:08:09;8.77;;;3.65;;
75739;SDS011;64357;51.344;6.550;2023-04-10T10:10:39;7.13;;;2.97;;
75739;SDS011;64357;51.344;6.550;2023-04-10T10:13:14;7.68;;;2.90;;
75739;SDS011;64357;51.344;6.550;2023-04-10T10:15:44;6.55;;;2.83;;
75739;SDS011;64357;51.344;6.550;2023-04-10T10:20:47;7.22;;;3.20;;
75739;SDS011;64357;51.344;6.550;2023-04-10T10:23:14;6.80;;;3.05;;
75739;SDS011;64357;51.344;6.550;2023-04-10T10:25:43;7.47;;;2.97;;
75739;SDS011;64357;51.344;6.550;2023-04-10T10:28:11;7.82;;;3.05;;
75739;SDS011;64357;51.344;6.550;2023-04-10T10:30:38;6.60;;;2.45;;
75739;SDS011;64357;51.344;6.550;2023-04-10T10:33:05;6.60;;;2.92;;
75739;SDS011;64357;51.344;6.550;2023-04-10T10:35:33;6.10;;;2.50;;
75739;SDS011;64357;51.344;6.550;2023-04-10T10:38:01;7.50;;;3.25;;
75739;SDS011;64357;51.344;6.550;2023-04-10T10:40:31;6.93;;;3.15;;
75739;SDS011;64357;51.344;6.550;2023-04-10T10:45:51;6.22;;;2.50;;
75739;SDS011;64357;51.344;6.550;2023-04-10T10:48:20;6.20;;;2.58;;
75739;SDS011;64357;51.344;6.550;2023-04-10T10:50:49;6.70;;;2.92;;
75739;SDS011;64357;51.344;6.550;2023-04-10T10:53:30;9.48;;;2.83;;
75739;SDS011;64357;51.344;6.550;2023-04-10T10:58:50;6.88;;;2.92;;
75739;SDS011;64357;51.344;6.550;2023-04-10T11:01:19;6.55;;;2.40;;
75739;SDS011;64357;51.344;6.550;2023-04-10T11:03:46;6.40;;;2.67;;
75739;SDS011;64357;51.344;6.550;2023-04-10T11:06:14;6.72;;;2.50;;
75739;SDS011;64357;51.344;6.550;2023-04-10T11:11:14;7.30;;;2.58;;
75739;SDS011;64357;51.344;6.550;2023-04-10T11:23:37;7.88;;;2.50;;
75739;SDS011;64357;51.344;6.550;2023-04-10T11:28:58;6.00;;;2.50;;
75739;SDS011;64357;51.344;6.550;2023-04-10T11:31:24;5.95;;;2.53;;
75739;SDS011;64357;51.344;6.550;2023-04-10T11:36:22;7.72;;;3.30;;
75739;SDS011;64357;51.344;6.550;2023-04-10T11:41:31;5.43;;;2.40;;
75739;SDS011;64357;51.344;6.550;2023-04-10T11:43:59;6.80;;;2.53;;
75739;SDS011;64357;51.344;6.550;2023-04-10T11:46:26;5.65;;;2.22;;
75739;SDS011;64357;51.344;6.550;2023-04-10T11:48:56;6.75;;;2.30;;
75739;SDS011;64357;51.344;6.550;2023-04-10T11:51:23;5.70;;;2.22;;
75739;SDS011;64357;51.344;6.550;2023-04-10T11:53:48;6.30;;;2.00;;
75739;SDS011;64357;51.344;6.550;2023-04-10T11:56:21;5.45;;;2.22;;
75739;SDS011;64357;51.344;6.550;2023-04-10T11:58:50;5.47;;;2.13;;
75739;SDS011;64357;51.344;6.550;2023-04-10T12:03:45;5.57;;;2.10;;
75739;SDS011;64357;51.344;6.550;2023-04-10T12:06:13;5.38;;;2.33;;
75739;SDS011;64357;51.344;6.550;2023-04-10T12:08:40;5.93;;;2.20;;
75739;SDS011;64357;51.344;6.550;2023-04-10T12:11:09;10.10;;;2.35;;
75739;SDS011;64357;51.344;6.550;2023-04-10T12:13:54;5.45;;;1.98;;
75739;SDS011;64357;51.344;6.550;2023-04-10T12:16:20;5.60;;;2.10;;
75739;SDS011;64357;51.344;6.550;2023-04-10T12:18:50;7.78;;;2.55;;
75739;SDS011;64357;51.344;6.550;2023-04-10T12:21:18;4.57;;;2.10;;
75739;SDS011;64357;51.344;6.550;2023-04-10T12:23:50;4.97;;;2.03;;
75739;SDS011;64357;51.344;6.550;2023-04-10T12:26:17;4.85;;;1.90;;
75739;SDS011;64357;51.344;6.550;2023-04-10T12:28:52;5.72;;;2.38;;
75739;SDS011;64357;51.344;6.550;2023-04-10T12:31:35;5.22;;;2.30;;
75739;SDS011;64357;51.344;6.550;2023-04-10T12:34:03;6.05;;;2.03;;
75739;SDS011;64357;51.344;6.550;2023-04-10T12:36:30;4.78;;;2.03;;
75739;SDS011;64357;51.344;6.550;2023-04-10T12:39:01;4.93;;;1.98;;
75739;SDS011;64357;51.344;6.550;2023-04-10T12:41:29;5.88;;;2.00;;
75739;SDS011;64357;51.344;6.550;2023-04-10T12:44:13;5.43;;;2.13;;
75739;SDS011;64357;51.344;6.550;2023-04-10T12:46:39;4.72;;;1.83;;
75739;SDS011;64357;51.344;6.550;2023-04-10T12:49:12;4.60;;;1.77;;
75739;SDS011;64357;51.344;6.550;2023-04-10T12:51:47;5.15;;;2.17;;
75739;SDS011;64357;51.344;6.550;2023-04-10T12:54:30;4.30;;;2.00;;
75739;SDS011;64357;51.344;6.550;2023-04-10T12:57:01;6.47;;;2.10;;
75739;SDS011;64357;51.344;6.550;2023-04-10T12:59:31;4.05;;;1.95;;
75739;SDS011;64357;51.344;6.550;2023-04-10T13:01:59;5.45;;;2.22;;
75739;SDS011;64357;51.344;6.550;2023-04-10T13:04:31;4.97;;;1.85;;
75739;SDS011;64357;51.344;6.550;2023-04-10T13:06:59;5.05;;;1.92;;
75739;SDS011;64357;51.344;6.550;2023-04-10T13:09:25;4.60;;;1.73;;
75739;SDS011;64357;51.344;6.550;2023-04-10T13:11:52;5.82;;;1.83;;
75739;SDS011;64357;51.344;6.550;2023-04-10T13:14:18;6.80;;;2.33;;
75739;SDS011;64357;51.344;6.550;2023-04-10T13:16:43;3.95;;;1.70;;
75739;SDS011;64357;51.344;6.550;2023-04-10T13:19:11;6.38;;;2.03;;
75739;SDS011;64357;51.344;6.550;2023-04-10T13:21:36;3.85;;;1.80;;
75739;SDS011;64357;51.344;6.550;2023-04-10T13:24:02;2.97;;;1.40;;
75739;SDS011;64357;51.344;6.550;2023-04-10T13:26:27;4.38;;;1.77;;
75739;SDS011;64357;51.344;6.550;2023-04-10T13:28:53;4.13;;;1.60;;
75739;SDS011;64357;51.344;6.550;2023-04-10T13:31:18;3.83;;;1.60;;
75739;SDS011;64357;51.344;6.550;2023-04-10T13:33:44;4.28;;;1.60;;
75739;SDS011;64357;51.344;6.550;2023-04-10T13:36:13;3.78;;;1.38;;
75739;SDS011;64357;51.344;6.550;2023-04-10T13:38:41;3.95;;;1.52;;
75739;SDS011;64357;51.344;6.550;2023-04-10T13:41:07;3.67;;;1.50;;
75739;SDS011;64357;51.344;6.550;2023-04-10T13:43:32;4.18;;;1.58;;
75739;SDS011;64357;51.344;6.550;2023-04-10T13:46:00;3.70;;;1.45;;
75739;SDS011;64357;51.344;6.550;2023-04-10T13:48:26;4.38;;;1.70;;
75739;SDS011;64357;51.344;6.550;2023-04-10T13:50:51;3.37;;;1.20;;
75739;SDS011;64357;51.344;6.550;2023-04-10T13:53:17;4.10;;;2.00;;
75739;SDS011;64357;51.344;6.550;2023-04-10T13:55:43;5.13;;;1.57;;
75739;SDS011;64357;51.344;6.550;2023-04-10T13:58:11;4.38;;;1.63;;
75739;SDS011;64357;51.344;6.550;2023-04-10T14:00:41;3.72;;;1.60;;
75739;SDS011;64357;51.344;6.550;2023-04-10T14:03:09;6.53;;;1.55;;
75739;SDS011;64357;51.344;6.550;2023-04-10T14:05:36;2.17;;;1.20;;
75739;SDS011;64357;51.344;6.550;2023-04-10T14:08:07;5.80;;;1.92;;
75739;SDS011;64357;51.344;6.550;2023-04-10T14:10:38;3.70;;;1.50;;
75739;SDS011;64357;51.344;6.550;2023-04-10T14:13:24;4.85;;;1.52;;
75739;SDS011;64357;51.344;6.550;2023-04-10T14:15:49;5.00;;;1.67;;
75739;SDS011;64357;51.344;6.550;2023-04-10T14:18:17;2.60;;;1.40;;
75739;SDS011;64357;51.344;6.550;2023-04-10T14:20:43;3.67;;;1.40;;
75739;SDS011;64357;51.344;6.550;2023-04-10T14:23:11;7.93;;;2.05;;
75739;SDS011;64357;51.344;6.550;2023-04-10T14:28:07;5.50;;;1.80;;
75739;SDS011;64357;51.344;6.550;2023-04-10T14:30:45;3.25;;;1.48;;
75739;SDS011;64357;51.344;6.550;2023-04-10T14:33:15;5.35;;;1.58;;
75739;SDS011;64357;51.344;6.550;2023-04-10T14:35:42;3.95;;;1.65;;
75739;SDS011;64357;51.344;6.550;2023-04-10T14:38:08;4.82;;;1.80;;
75739;SDS011;64357;51.344;6.550;2023-04-10T14:40:39;4.53;;;1.88;;
75739;SDS011;64357;51.344;6.550;2023-04-10T14:43:07;4.88;;;1.92;;
75739;SDS011;64357;51.344;6.550;2023-04-10T14:48:31;3.47;;;1.80;;
75739;SDS011;64357;51.344;6.550;2023-04-10T14:50:59;4.93;;;1.75;;
75739;SDS011;64357;51.344;6.550;2023-04-10T14:53:30;4.55;;;1.98;;
75739;SDS011;64357;51.344;6.550;2023-04-10T14:55:58;4.75;;;1.80;;
75739;SDS011;64357;51.344;6.550;2023-04-10T14:58:34;3.92;;;1.90;;
75739;SDS011;64357;51.344;6.550;2023-04-10T15:00:59;4.00;;;1.77;;
75739;SDS011;64357;51.344;6.550;2023-04-10T15:03:25;3.70;;;1.53;;
75739;SDS011;64357;51.344;6.550;2023-04-10T15:05:57;4.73;;;1.80;;
75739;SDS011;64357;51.344;6.550;2023-04-10T15:08:23;2.78;;;1.30;;
75739;SDS011;64357;51.344;6.550;2023-04-10T15:10:51;5.15;;;1.50;;
75739;SDS011;64357;51.344;6.550;2023-04-10T15:13:17;3.80;;;1.50;;
75739;SDS011;64357;51.344;6.550;2023-04-10T15:15:53;4.65;;;1.80;;
75739;SDS011;64357;51.344;6.550;2023-04-10T15:18:21;3.50;;;1.55;;
75739;SDS011;64357;51.344;6.550;2023-04-10T15:20:50;3.95;;;1.73;;
75739;SDS011;64357;51.344;6.550;2023-04-10T15:23:16;4.57;;;1.80;;
75739;SDS011;64357;51.344;6.550;2023-04-10T15:25:56;4.88;;;1.60;;
75739;SDS011;64357;51.344;6.550;2023-04-10T15:28:45;4.13;;;1.60;;
75739;SDS011;64357;51.344;6.550;2023-04-10T15:31:13;3.00;;;1.50;;
75739;SDS011;64357;51.344;6.550;2023-04-10T15:33:44;4.32;;;1.63;;
75739;SDS011;64357;51.344;6.550;2023-04-10T15:36:10;3.90;;;1.40;;
75739;SDS011;64357;51.344;6.550;2023-04-10T15:38:35;4.82;;;1.80;;
75739;SDS011;64357;51.344;6.550;2023-04-10T15:41:11;4.53;;;1.83;;
75739;SDS011;64357;51.344;6.550;2023-04-10T15:43:39;5.40;;;1.80;;
75739;SDS011;64357;51.344;6.550;2023-04-10T15:46:10;4.43;;;1.60;;
75739;SDS011;64357;51.344;6.550;2023-04-10T15:48:35;5.05;;;2.03;;